sensor_id;sensor_type;location;lat;lon;timestamp;temperature;humidity
7576;DHT22;3829;50.798;4.358;2023-07-20T00:01:11;16.60;99.90
7576;DHT22;3829;50.798;4.358;2023-07-20T00:03:36;16.60;99.90
7576;DHT22;3829;50.798;4.358;2023-07-20T00:06:02;16.70;99.90
7576;DHT22;3829;50.798;4.358;2023-07-20T00:08:29;16.80;99.90
7576;DHT22;3829;50.798;4.358;2023-07-20T00:10:55;16.80;99.90
7576;DHT22;3829;50.798;4.358;2023-07-20T00:13:21;16.90;99.90
7576;DHT22;3829;50.798;4.358;2023-07-20T00:15:47;16.90;99.90
7576;DHT22;3829;50.798;4.358;2023-07-20T00:18:12;17.00;99.90
7576;DHT22;3829;50.798;4.358;2023-07-20T00:20:39;17.00;99.90
7576;DHT22;3829;50.798;4.358;2023-07-20T00:23:05;17.10;99.90
7576;DHT22;3829;50.798;4.358;2023-07-20T00:25:30;17.10;99.90
7576;DHT22;3829;50.798;4.358;2023-07-20T00:27:56;16.90;99.90
7576;DHT22;3829;50.798;4.358;2023-07-20T00:30:21;16.90;99.90
7576;DHT22;3829;50.798;4.358;2023-07-20T00:32:47;16.90;99.90
7576;DHT22;3829;50.798;4.358;2023-07-20T00:35:13;16.80;99.90
7576;DHT22;3829;50.798;4.358;2023-07-20T00:37:39;16.90;99.90
7576;DHT22;3829;50.798;4.358;2023-07-20T00:40:06;16.80;99.90
7576;DHT22;3829;50.798;4.358;2023-07-20T00:42:33;16.80;99.90
7576;DHT22;3829;50.798;4.358;2023-07-20T00:44:59;16.70;99.90
7576;DHT22;3829;50.798;4.358;2023-07-20T00:47:26;16.60;99.90
7576;DHT22;3829;50.798;4.358;2023-07-20T00:49:52;16.60;99.90
7576;DHT22;3829;50.798;4.358;2023-07-20T00:52:20;16.70;99.90
7576;DHT22;3829;50.798;4.358;2023-07-20T00:54:47;16.70;99.90
7576;DHT22;3829;50.798;4.358;2023-07-20T00:57:14;16.70;99.90
7576;DHT22;3829;50.798;4.358;2023-07-20T00:59:40;16.70;99.90
7576;DHT22;3829;50.798;4.358;2023-07-20T01:02:06;16.70;99.90
7576;DHT22;3829;50.798;4.358;2023-07-20T01:04:32;16.70;99.90
7576;DHT22;3829;50.798;4.358;2023-07-20T01:07:03;16.70;99.90
7576;DHT22;3829;50.798;4.358;2023-07-20T01:09:39;16.80;99.90
7576;DHT22;3829;50.798;4.358;2023-07-20T01:12:12;16.80;99.90
7576;DHT22;3829;50.798;4.358;2023-07-20T01:14:40;16.80;99.90
7576;DHT22;3829;50.798;4.358;2023-07-20T01:17:05;16.90;99.90
7576;DHT22;3829;50.798;4.358;2023-07-20T01:19:31;16.90;99.90
7576;DHT22;3829;50.798;4.358;2023-07-20T01:22:02;17.00;99.90
7576;DHT22;3829;50.798;4.358;2023-07-20T01:27:27;17.10;99.90
7576;DHT22;3829;50.798;4.358;2023-07-20T01:30:10;17.10;99.90
7576;DHT22;3829;50.798;4.358;2023-07-20T01:32:41;17.00;99.90
7576;DHT22;3829;50.798;4.358;2023-07-20T01:35:10;17.10;99.90
7576;DHT22;3829;50.798;4.358;2023-07-20T01:37:41;17.10;99.90
7576;DHT22;3829;50.798;4.358;2023-07-20T01:40:08;17.20;99.90
7576;DHT22;3829;50.798;4.358;2023-07-20T01:42:34;17.20;99.90
7576;DHT22;3829;50.798;4.358;2023-07-20T01:45:00;17.30;99.90
7576;DHT22;3829;50.798;4.358;2023-07-20T01:47:25;17.30;99.90
7576;DHT22;3829;50.798;4.358;2023-07-20T01:49:51;17.30;99.90
7576;DHT22;3829;50.798;4.358;2023-07-20T01:52:16;17.30;99.90
7576;DHT22;3829;50.798;4.358;2023-07-20T01:54:42;17.30;99.90
7576;DHT22;3829;50.798;4.358;2023-07-20T01:57:07;17.20;99.90
7576;DHT22;3829;50.798;4.358;2023-07-20T01:59:33;17.20;99.90
7576;DHT22;3829;50.798;4.358;2023-07-20T02:01:59;17.20;99.90
7576;DHT22;3829;50.798;4.358;2023-07-20T02:04:24;17.20;99.90
7576;DHT22;3829;50.798;4.358;2023-07-20T02:06:50;17.10;99.90
7576;DHT22;3829;50.798;4.358;2023-07-20T02:09:16;17.00;99.90
7576;DHT22;3829;50.798;4.358;2023-07-20T02:11:41;16.90;99.90
7576;DHT22;3829;50.798;4.358;2023-07-20T02:14:07;16.90;99.90
7576;DHT22;3829;50.798;4.358;2023-07-20T02:16:32;16.90;99.90
7576;DHT22;3829;50.798;4.358;2023-07-20T02:18:58;16.90;99.90
7576;DHT22;3829;50.798;4.358;2023-07-20T02:21:24;16.90;99.90
7576;DHT22;3829;50.798;4.358;2023-07-20T02:23:49;16.80;99.90
7576;DHT22;3829;50.798;4.358;2023-07-20T02:26:15;16.90;99.90
7576;DHT22;3829;50.798;4.358;2023-07-20T02:28:41;16.90;99.90
7576;DHT22;3829;50.798;4.358;2023-07-20T02:31:07;16.80;99.90
7576;DHT22;3829;50.798;4.358;2023-07-20T02:33:32;16.80;99.90
7576;DHT22;3829;50.798;4.358;2023-07-20T02:35:58;16.80;99.90
7576;DHT22;3829;50.798;4.358;2023-07-20T02:38:24;16.80;99.90
7576;DHT22;3829;50.798;4.358;2023-07-20T02:40:49;16.70;99.90
7576;DHT22;3829;50.798;4.358;2023-07-20T02:43:15;16.70;99.90
7576;DHT22;3829;50.798;4.358;2023-07-20T02:45:41;16.60;99.90
7576;DHT22;3829;50.798;4.358;2023-07-20T02:48:08;16.60;99.90
7576;DHT22;3829;50.798;4.358;2023-07-20T02:50:34;16.50;99.90
7576;DHT22;3829;50.798;4.358;2023-07-20T02:53:00;16.40;99.90
7576;DHT22;3829;50.798;4.358;2023-07-20T02:55:26;16.40;99.90
7576;DHT22;3829;50.798;4.358;2023-07-20T02:57:52;16.40;99.90
7576;DHT22;3829;50.798;4.358;2023-07-20T03:00:17;16.40;99.90
7576;DHT22;3829;50.798;4.358;2023-07-20T03:02:46;16.40;99.90
7576;DHT22;3829;50.798;4.358;2023-07-20T03:05:13;16.40;99.90
7576;DHT22;3829;50.798;4.358;2023-07-20T03:07:39;16.50;99.90
7576;DHT22;3829;50.798;4.358;2023-07-20T03:10:05;16.50;99.90
7576;DHT22;3829;50.798;4.358;2023-07-20T03:12:35;16.50;99.90
7576;DHT22;3829;50.798;4.358;2023-07-20T03:15:02;16.60;99.90
7576;DHT22;3829;50.798;4.358;2023-07-20T03:17:27;16.60;99.90
7576;DHT22;3829;50.798;4.358;2023-07-20T03:19:53;16.60;99.90
7576;DHT22;3829;50.798;4.358;2023-07-20T03:22:19;16.60;99.90
7576;DHT22;3829;50.798;4.358;2023-07-20T03:24:44;16.60;99.90
7576;DHT22;3829;50.798;4.358;2023-07-20T03:27:10;16.60;99.90
7576;DHT22;3829;50.798;4.358;2023-07-20T03:29:36;16.50;99.90
7576;DHT22;3829;50.798;4.358;2023-07-20T03:32:01;16.50;99.90
7576;DHT22;3829;50.798;4.358;2023-07-20T03:34:27;16.60;99.90
7576;DHT22;3829;50.798;4.358;2023-07-20T03:36:52;16.70;99.90
7576;DHT22;3829;50.798;4.358;2023-07-20T03:39:18;16.70;99.90
7576;DHT22;3829;50.798;4.358;2023-07-20T03:41:43;16.70;99.90
7576;DHT22;3829;50.798;4.358;2023-07-20T03:44:09;16.80;99.90
7576;DHT22;3829;50.798;4.358;2023-07-20T03:46:34;16.80;99.90
7576;DHT22;3829;50.798;4.358;2023-07-20T03:49:00;16.80;99.90
7576;DHT22;3829;50.798;4.358;2023-07-20T03:51:26;16.80;99.90
7576;DHT22;3829;50.798;4.358;2023-07-20T03:53:52;16.80;99.90
7576;DHT22;3829;50.798;4.358;2023-07-20T03:56:17;16.90;99.90
7576;DHT22;3829;50.798;4.358;2023-07-20T03:58:43;17.00;99.90
7576;DHT22;3829;50.798;4.358;2023-07-20T04:01:08;16.90;99.90
7576;DHT22;3829;50.798;4.358;2023-07-20T04:03:35;16.90;99.90
7576;DHT22;3829;50.798;4.358;2023-07-20T04:06:01;17.00;99.90
7576;DHT22;3829;50.798;4.358;2023-07-20T04:08:27;17.00;99.90
7576;DHT22;3829;50.798;4.358;2023-07-20T04:10:53;17.00;99.90
7576;DHT22;3829;50.798;4.358;2023-07-20T04:13:19;17.10;99.90
7576;DHT22;3829;50.798;4.358;2023-07-20T04:15:44;17.10;99.90
7576;DHT22;3829;50.798;4.358;2023-07-20T04:18:10;17.00;99.90
7576;DHT22;3829;50.798;4.358;2023-07-20T04:20:35;16.90;99.90
7576;DHT22;3829;50.798;4.358;2023-07-20T04:23:01;16.90;99.90
7576;DHT22;3829;50.798;4.358;2023-07-20T04:25:27;16.90;99.90
7576;DHT22;3829;50.798;4.358;2023-07-20T04:27:52;16.90;99.90
7576;DHT22;3829;50.798;4.358;2023-07-20T04:30:19;17.00;99.90
7576;DHT22;3829;50.798;4.358;2023-07-20T04:32:46;16.90;99.90
7576;DHT22;3829;50.798;4.358;2023-07-20T04:35:18;16.90;99.90
7576;DHT22;3829;50.798;4.358;2023-07-20T04:37:44;16.90;99.90
7576;DHT22;3829;50.798;4.358;2023-07-20T04:40:15;16.90;99.90
7576;DHT22;3829;50.798;4.358;2023-07-20T04:42:40;17.00;99.90
7576;DHT22;3829;50.798;4.358;2023-07-20T04:45:06;17.10;99.90
7576;DHT22;3829;50.798;4.358;2023-07-20T04:47:32;17.20;99.90
7576;DHT22;3829;50.798;4.358;2023-07-20T04:49:57;17.20;99.90
7576;DHT22;3829;50.798;4.358;2023-07-20T04:52:23;17.30;99.90
7576;DHT22;3829;50.798;4.358;2023-07-20T04:54:49;17.30;99.90
7576;DHT22;3829;50.798;4.358;2023-07-20T04:57:15;17.30;99.90
7576;DHT22;3829;50.798;4.358;2023-07-20T04:59:40;17.30;99.90
7576;DHT22;3829;50.798;4.358;2023-07-20T05:02:06;17.20;99.90
7576;DHT22;3829;50.798;4.358;2023-07-20T05:04:31;17.30;99.90
7576;DHT22;3829;50.798;4.358;2023-07-20T05:06:57;17.20;99.90
7576;DHT22;3829;50.798;4.358;2023-07-20T05:09:22;17.10;99.90
7576;DHT22;3829;50.798;4.358;2023-07-20T05:11:48;17.20;99.90
7576;DHT22;3829;50.798;4.358;2023-07-20T05:14:14;17.20;99.90
7576;DHT22;3829;50.798;4.358;2023-07-20T05:16:39;17.20;99.90
7576;DHT22;3829;50.798;4.358;2023-07-20T05:19:05;17.30;99.90
7576;DHT22;3829;50.798;4.358;2023-07-20T05:21:31;17.30;99.90
7576;DHT22;3829;50.798;4.358;2023-07-20T05:23:56;17.40;99.90
7576;DHT22;3829;50.798;4.358;2023-07-20T05:26:22;17.40;99.90
7576;DHT22;3829;50.798;4.358;2023-07-20T05:28:47;17.50;99.90
7576;DHT22;3829;50.798;4.358;2023-07-20T05:31:13;17.50;99.90
7576;DHT22;3829;50.798;4.358;2023-07-20T05:33:39;17.60;99.90
7576;DHT22;3829;50.798;4.358;2023-07-20T05:36:04;17.60;99.90
7576;DHT22;3829;50.798;4.358;2023-07-20T05:38:30;17.70;99.90
7576;DHT22;3829;50.798;4.358;2023-07-20T05:40:59;17.70;99.90
7576;DHT22;3829;50.798;4.358;2023-07-20T05:43:26;17.70;99.90
7576;DHT22;3829;50.798;4.358;2023-07-20T05:45:52;17.60;99.90
7576;DHT22;3829;50.798;4.358;2023-07-20T05:48:17;17.60;99.90
7576;DHT22;3829;50.798;4.358;2023-07-20T05:50:43;17.40;99.90
7576;DHT22;3829;50.798;4.358;2023-07-20T05:53:09;17.50;99.90
7576;DHT22;3829;50.798;4.358;2023-07-20T05:55:34;17.50;99.90
7576;DHT22;3829;50.798;4.358;2023-07-20T05:58:00;17.50;99.90
7576;DHT22;3829;50.798;4.358;2023-07-20T06:00:25;17.50;99.90
7576;DHT22;3829;50.798;4.358;2023-07-20T06:02:53;17.50;99.90
7576;DHT22;3829;50.798;4.358;2023-07-20T06:05:19;17.50;99.90
7576;DHT22;3829;50.798;4.358;2023-07-20T06:07:46;17.50;99.90
7576;DHT22;3829;50.798;4.358;2023-07-20T06:10:12;17.60;99.90
7576;DHT22;3829;50.798;4.358;2023-07-20T06:12:37;17.70;99.90
7576;DHT22;3829;50.798;4.358;2023-07-20T06:15:04;17.80;99.90
7576;DHT22;3829;50.798;4.358;2023-07-20T06:17:30;17.90;99.90
7576;DHT22;3829;50.798;4.358;2023-07-20T06:19:56;17.90;99.90
7576;DHT22;3829;50.798;4.358;2023-07-20T06:22:22;17.90;99.90
7576;DHT22;3829;50.798;4.358;2023-07-20T06:24:47;17.90;99.90
7576;DHT22;3829;50.798;4.358;2023-07-20T06:27:13;18.00;99.90
7576;DHT22;3829;50.798;4.358;2023-07-20T06:29:39;18.00;99.90
7576;DHT22;3829;50.798;4.358;2023-07-20T06:32:05;17.90;99.90
7576;DHT22;3829;50.798;4.358;2023-07-20T06:34:31;18.10;99.90
7576;DHT22;3829;50.798;4.358;2023-07-20T06:37:02;18.20;99.90
7576;DHT22;3829;50.798;4.358;2023-07-20T06:39:29;18.20;99.90
7576;DHT22;3829;50.798;4.358;2023-07-20T06:41:55;18.30;99.90
7576;DHT22;3829;50.798;4.358;2023-07-20T06:44:20;18.20;99.90
7576;DHT22;3829;50.798;4.358;2023-07-20T06:46:46;18.10;99.90
7576;DHT22;3829;50.798;4.358;2023-07-20T06:49:24;18.30;99.90
7576;DHT22;3829;50.798;4.358;2023-07-20T06:51:50;18.40;99.90
7576;DHT22;3829;50.798;4.358;2023-07-20T06:54:15;18.50;99.90
7576;DHT22;3829;50.798;4.358;2023-07-20T06:56:41;18.50;99.90
7576;DHT22;3829;50.798;4.358;2023-07-20T06:59:06;18.50;99.90
7576;DHT22;3829;50.798;4.358;2023-07-20T07:01:32;18.60;99.90
7576;DHT22;3829;50.798;4.358;2023-07-20T07:03:57;18.90;99.90
7576;DHT22;3829;50.798;4.358;2023-07-20T07:06:23;19.10;99.90
7576;DHT22;3829;50.798;4.358;2023-07-20T07:08:49;19.30;99.90
7576;DHT22;3829;50.798;4.358;2023-07-20T07:11:14;19.60;99.90
7576;DHT22;3829;50.798;4.358;2023-07-20T07:13:40;19.70;99.90
7576;DHT22;3829;50.798;4.358;2023-07-20T07:16:06;19.70;99.90
7576;DHT22;3829;50.798;4.358;2023-07-20T07:18:31;19.60;99.90
7576;DHT22;3829;50.798;4.358;2023-07-20T07:20:57;19.50;99.90
7576;DHT22;3829;50.798;4.358;2023-07-20T07:23:22;19.20;99.90
7576;DHT22;3829;50.798;4.358;2023-07-20T07:25:48;19.10;99.90
7576;DHT22;3829;50.798;4.358;2023-07-20T07:28:14;19.00;99.90
7576;DHT22;3829;50.798;4.358;2023-07-20T07:30:39;19.10;99.90
7576;DHT22;3829;50.798;4.358;2023-07-20T07:33:05;19.10;99.90
7576;DHT22;3829;50.798;4.358;2023-07-20T07:35:31;19.20;99.90
7576;DHT22;3829;50.798;4.358;2023-07-20T07:37:56;19.60;99.90
7576;DHT22;3829;50.798;4.358;2023-07-20T07:40:22;20.00;99.90
7576;DHT22;3829;50.798;4.358;2023-07-20T07:42:47;20.30;99.90
7576;DHT22;3829;50.798;4.358;2023-07-20T07:45:13;20.50;99.90
7576;DHT22;3829;50.798;4.358;2023-07-20T07:47:39;20.70;99.90
7576;DHT22;3829;50.798;4.358;2023-07-20T07:50:05;21.10;99.90
7576;DHT22;3829;50.798;4.358;2023-07-20T07:52:30;21.30;99.90
7576;DHT22;3829;50.798;4.358;2023-07-20T07:54:56;21.30;99.90
7576;DHT22;3829;50.798;4.358;2023-07-20T07:57:21;21.20;99.90
7576;DHT22;3829;50.798;4.358;2023-07-20T07:59:47;21.30;99.90
7576;DHT22;3829;50.798;4.358;2023-07-20T08:02:13;21.30;99.90
7576;DHT22;3829;50.798;4.358;2023-07-20T08:04:38;21.30;99.90
7576;DHT22;3829;50.798;4.358;2023-07-20T08:07:04;21.00;99.90
7576;DHT22;3829;50.798;4.358;2023-07-20T08:09:30;20.20;99.90
7576;DHT22;3829;50.798;4.358;2023-07-20T08:11:55;19.70;99.90
7576;DHT22;3829;50.798;4.358;2023-07-20T08:14:21;19.50;99.90
7576;DHT22;3829;50.798;4.358;2023-07-20T08:16:47;19.70;99.90
7576;DHT22;3829;50.798;4.358;2023-07-20T08:19:12;19.90;99.90
7576;DHT22;3829;50.798;4.358;2023-07-20T08:21:38;20.00;99.90
7576;DHT22;3829;50.798;4.358;2023-07-20T08:24:04;20.10;99.90
7576;DHT22;3829;50.798;4.358;2023-07-20T08:26:29;19.90;99.90
7576;DHT22;3829;50.798;4.358;2023-07-20T08:28:55;19.90;99.90
7576;DHT22;3829;50.798;4.358;2023-07-20T08:31:21;19.90;99.90
7576;DHT22;3829;50.798;4.358;2023-07-20T08:33:47;19.90;99.90
7576;DHT22;3829;50.798;4.358;2023-07-20T08:36:13;19.70;99.90
7576;DHT22;3829;50.798;4.358;2023-07-20T08:38:39;19.70;99.90
7576;DHT22;3829;50.798;4.358;2023-07-20T08:41:05;20.10;99.90
7576;DHT22;3829;50.798;4.358;2023-07-20T08:43:31;20.40;99.90
7576;DHT22;3829;50.798;4.358;2023-07-20T08:45:58;20.80;99.90
7576;DHT22;3829;50.798;4.358;2023-07-20T08:48:24;21.20;99.90
7576;DHT22;3829;50.798;4.358;2023-07-20T08:50:53;21.50;99.90
7576;DHT22;3829;50.798;4.358;2023-07-20T08:53:20;21.90;99.90
7576;DHT22;3829;50.798;4.358;2023-07-20T08:55:49;22.10;99.90
7576;DHT22;3829;50.798;4.358;2023-07-20T08:58:15;22.30;99.90
7576;DHT22;3829;50.798;4.358;2023-07-20T09:00:42;22.50;99.90
7576;DHT22;3829;50.798;4.358;2023-07-20T09:03:08;22.50;99.90
7576;DHT22;3829;50.798;4.358;2023-07-20T09:05:35;22.40;99.90
7576;DHT22;3829;50.798;4.358;2023-07-20T09:08:01;22.20;99.90
7576;DHT22;3829;50.798;4.358;2023-07-20T09:10:29;22.30;99.90
7576;DHT22;3829;50.798;4.358;2023-07-20T09:12:55;22.50;99.90
7576;DHT22;3829;50.798;4.358;2023-07-20T09:15:22;22.80;99.90
7576;DHT22;3829;50.798;4.358;2023-07-20T09:17:49;22.90;99.90
7576;DHT22;3829;50.798;4.358;2023-07-20T09:20:16;23.10;99.90
7576;DHT22;3829;50.798;4.358;2023-07-20T09:22:42;23.10;99.90
7576;DHT22;3829;50.798;4.358;2023-07-20T09:25:13;23.20;99.90
7576;DHT22;3829;50.798;4.358;2023-07-20T09:27:41;23.10;99.90
7576;DHT22;3829;50.798;4.358;2023-07-20T09:30:07;23.40;99.90
7576;DHT22;3829;50.798;4.358;2023-07-20T09:32:41;23.40;99.90
7576;DHT22;3829;50.798;4.358;2023-07-20T09:35:13;23.30;99.90
7576;DHT22;3829;50.798;4.358;2023-07-20T09:37:39;23.60;99.90
7576;DHT22;3829;50.798;4.358;2023-07-20T09:40:07;23.30;99.90
7576;DHT22;3829;50.798;4.358;2023-07-20T09:42:35;23.10;99.90
7576;DHT22;3829;50.798;4.358;2023-07-20T09:45:02;23.10;99.90
7576;DHT22;3829;50.798;4.358;2023-07-20T09:47:27;23.20;99.90
7576;DHT22;3829;50.798;4.358;2023-07-20T09:50:01;23.10;99.90
7576;DHT22;3829;50.798;4.358;2023-07-20T09:52:27;22.80;99.90
7576;DHT22;3829;50.798;4.358;2023-07-20T09:54:54;22.20;99.90
7576;DHT22;3829;50.798;4.358;2023-07-20T09:57:21;22.20;99.90
7576;DHT22;3829;50.798;4.358;2023-07-20T09:59:47;22.60;99.90
7576;DHT22;3829;50.798;4.358;2023-07-20T10:02:21;22.40;99.90
7576;DHT22;3829;50.798;4.358;2023-07-20T10:04:52;22.80;99.90
7576;DHT22;3829;50.798;4.358;2023-07-20T10:07:19;23.10;99.90
7576;DHT22;3829;50.798;4.358;2023-07-20T10:09:48;22.60;99.90
7576;DHT22;3829;50.798;4.358;2023-07-20T10:12:15;22.90;99.90
7576;DHT22;3829;50.798;4.358;2023-07-20T10:17:25;23.10;99.90
7576;DHT22;3829;50.798;4.358;2023-07-20T10:19:54;22.90;99.90
7576;DHT22;3829;50.798;4.358;2023-07-20T10:22:26;23.10;99.90
7576;DHT22;3829;50.798;4.358;2023-07-20T10:24:53;23.40;99.90
7576;DHT22;3829;50.798;4.358;2023-07-20T10:27:20;23.50;99.90
7576;DHT22;3829;50.798;4.358;2023-07-20T10:29:47;23.80;99.90
7576;DHT22;3829;50.798;4.358;2023-07-20T10:32:13;24.10;99.90
7576;DHT22;3829;50.798;4.358;2023-07-20T10:34:39;24.40;99.90
7576;DHT22;3829;50.798;4.358;2023-07-20T10:37:05;24.90;99.90
7576;DHT22;3829;50.798;4.358;2023-07-20T10:39:32;24.60;99.90
7576;DHT22;3829;50.798;4.358;2023-07-20T10:42:08;24.30;99.90
7576;DHT22;3829;50.798;4.358;2023-07-20T10:44:34;24.10;99.90
7576;DHT22;3829;50.798;4.358;2023-07-20T10:47:03;23.90;99.90
7576;DHT22;3829;50.798;4.358;2023-07-20T10:49:33;23.90;99.90
7576;DHT22;3829;50.798;4.358;2023-07-20T10:52:00;23.30;99.90
7576;DHT22;3829;50.798;4.358;2023-07-20T10:54:47;22.70;99.90
7576;DHT22;3829;50.798;4.358;2023-07-20T10:57:23;23.10;99.90
7576;DHT22;3829;50.798;4.358;2023-07-20T10:59:49;23.50;99.90
7576;DHT22;3829;50.798;4.358;2023-07-20T11:02:18;23.40;99.90
7576;DHT22;3829;50.798;4.358;2023-07-20T11:04:47;23.20;99.90
7576;DHT22;3829;50.798;4.358;2023-07-20T11:07:17;23.60;99.90
7576;DHT22;3829;50.798;4.358;2023-07-20T11:09:43;24.10;99.90
7576;DHT22;3829;50.798;4.358;2023-07-20T11:12:12;24.00;99.90
7576;DHT22;3829;50.798;4.358;2023-07-20T11:14:44;24.10;99.90
7576;DHT22;3829;50.798;4.358;2023-07-20T11:17:18;24.40;99.90
7576;DHT22;3829;50.798;4.358;2023-07-20T11:19:48;24.90;99.90
7576;DHT22;3829;50.798;4.358;2023-07-20T11:22:17;25.50;99.90
7576;DHT22;3829;50.798;4.358;2023-07-20T11:24:43;26.30;99.90
7576;DHT22;3829;50.798;4.358;2023-07-20T11:27:09;26.60;99.90
7576;DHT22;3829;50.798;4.358;2023-07-20T11:29:35;26.70;99.90
7576;DHT22;3829;50.798;4.358;2023-07-20T11:32:03;26.40;99.90
7576;DHT22;3829;50.798;4.358;2023-07-20T11:34:30;26.00;99.90
7576;DHT22;3829;50.798;4.358;2023-07-20T11:36:56;25.60;99.90
7576;DHT22;3829;50.798;4.358;2023-07-20T11:39:22;25.80;99.90
7576;DHT22;3829;50.798;4.358;2023-07-20T11:41:58;25.90;99.90
7576;DHT22;3829;50.798;4.358;2023-07-20T11:44:25;25.60;99.90
7576;DHT22;3829;50.798;4.358;2023-07-20T11:47:07;25.90;99.90
7576;DHT22;3829;50.798;4.358;2023-07-20T11:49:39;26.10;99.90
7576;DHT22;3829;50.798;4.358;2023-07-20T11:52:06;26.00;99.90
7576;DHT22;3829;50.798;4.358;2023-07-20T11:54:33;25.60;99.90
7576;DHT22;3829;50.798;4.358;2023-07-20T11:57:02;25.90;99.90
7576;DHT22;3829;50.798;4.358;2023-07-20T11:59:27;26.10;99.90
7576;DHT22;3829;50.798;4.358;2023-07-20T12:01:53;25.40;99.90
7576;DHT22;3829;50.798;4.358;2023-07-20T12:04:18;25.70;99.90
7576;DHT22;3829;50.798;4.358;2023-07-20T12:06:45;26.10;99.90
7576;DHT22;3829;50.798;4.358;2023-07-20T12:09:14;26.20;99.90
7576;DHT22;3829;50.798;4.358;2023-07-20T12:11:43;25.90;99.90
7576;DHT22;3829;50.798;4.358;2023-07-20T12:14:09;25.70;99.90
7576;DHT22;3829;50.798;4.358;2023-07-20T12:16:36;25.60;99.90
7576;DHT22;3829;50.798;4.358;2023-07-20T12:19:05;25.70;99.90
7576;DHT22;3829;50.798;4.358;2023-07-20T12:21:32;25.80;99.90
7576;DHT22;3829;50.798;4.358;2023-07-20T12:23:59;25.90;99.90
7576;DHT22;3829;50.798;4.358;2023-07-20T12:26:25;26.20;99.90
7576;DHT22;3829;50.798;4.358;2023-07-20T12:28:52;26.40;99.90
7576;DHT22;3829;50.798;4.358;2023-07-20T12:31:18;26.20;99.90
7576;DHT22;3829;50.798;4.358;2023-07-20T12:33:43;26.40;99.90
7576;DHT22;3829;50.798;4.358;2023-07-20T12:36:10;26.10;99.90
7576;DHT22;3829;50.798;4.358;2023-07-20T12:38:36;26.10;99.90
7576;DHT22;3829;50.798;4.358;2023-07-20T12:41:02;26.40;99.90
7576;DHT22;3829;50.798;4.358;2023-07-20T12:43:29;26.10;99.90
7576;DHT22;3829;50.798;4.358;2023-07-20T12:45:55;26.10;99.90
7576;DHT22;3829;50.798;4.358;2023-07-20T12:48:21;26.00;99.90
7576;DHT22;3829;50.798;4.358;2023-07-20T12:50:47;25.80;99.90
7576;DHT22;3829;50.798;4.358;2023-07-20T12:53:13;25.40;99.90
7576;DHT22;3829;50.798;4.358;2023-07-20T12:55:39;25.20;99.90
7576;DHT22;3829;50.798;4.358;2023-07-20T12:58:05;25.00;99.90
7576;DHT22;3829;50.798;4.358;2023-07-20T13:00:30;24.90;99.90
7576;DHT22;3829;50.798;4.358;2023-07-20T13:02:57;24.40;99.90
7576;DHT22;3829;50.798;4.358;2023-07-20T13:05:23;24.10;99.90
7576;DHT22;3829;50.798;4.358;2023-07-20T13:07:49;24.00;99.90
7576;DHT22;3829;50.798;4.358;2023-07-20T13:10:14;23.50;99.90
7576;DHT22;3829;50.798;4.358;2023-07-20T13:12:40;23.30;99.90
7576;DHT22;3829;50.798;4.358;2023-07-20T13:15:07;23.10;99.90
7576;DHT22;3829;50.798;4.358;2023-07-20T13:17:34;23.10;99.90
7576;DHT22;3829;50.798;4.358;2023-07-20T13:20:00;23.00;99.90
7576;DHT22;3829;50.798;4.358;2023-07-20T13:22:26;23.00;99.90
7576;DHT22;3829;50.798;4.358;2023-07-20T13:24:52;23.10;99.90
7576;DHT22;3829;50.798;4.358;2023-07-20T13:27:19;23.00;99.90
7576;DHT22;3829;50.798;4.358;2023-07-20T13:29:45;23.00;99.90
7576;DHT22;3829;50.798;4.358;2023-07-20T13:32:13;22.90;99.90
7576;DHT22;3829;50.798;4.358;2023-07-20T13:34:40;22.90;99.90
7576;DHT22;3829;50.798;4.358;2023-07-20T13:37:05;23.00;99.90
7576;DHT22;3829;50.798;4.358;2023-07-20T13:39:31;23.20;99.90
7576;DHT22;3829;50.798;4.358;2023-07-20T13:41:57;23.40;99.90
7576;DHT22;3829;50.798;4.358;2023-07-20T13:44:22;23.40;99.90
7576;DHT22;3829;50.798;4.358;2023-07-20T13:46:49;23.50;99.90
7576;DHT22;3829;50.798;4.358;2023-07-20T13:49:15;23.80;99.90
7576;DHT22;3829;50.798;4.358;2023-07-20T13:51:42;23.80;99.90
7576;DHT22;3829;50.798;4.358;2023-07-20T13:54:08;24.00;99.90
7576;DHT22;3829;50.798;4.358;2023-07-20T13:56:34;24.20;99.90
7576;DHT22;3829;50.798;4.358;2023-07-20T13:59:00;24.40;99.90
7576;DHT22;3829;50.798;4.358;2023-07-20T14:01:26;24.40;99.90
7576;DHT22;3829;50.798;4.358;2023-07-20T14:03:55;24.70;99.90
7576;DHT22;3829;50.798;4.358;2023-07-20T14:06:21;25.00;99.90
7576;DHT22;3829;50.798;4.358;2023-07-20T14:08:46;25.00;99.90
7576;DHT22;3829;50.798;4.358;2023-07-20T14:11:13;25.50;99.90
7576;DHT22;3829;50.798;4.358;2023-07-20T14:13:38;25.50;99.90
7576;DHT22;3829;50.798;4.358;2023-07-20T14:16:05;26.00;99.90
7576;DHT22;3829;50.798;4.358;2023-07-20T14:18:30;27.30;99.90
7576;DHT22;3829;50.798;4.358;2023-07-20T14:20:56;29.10;99.90
7576;DHT22;3829;50.798;4.358;2023-07-20T14:23:21;30.20;99.90
7576;DHT22;3829;50.798;4.358;2023-07-20T14:25:48;30.60;99.90
7576;DHT22;3829;50.798;4.358;2023-07-20T14:28:14;30.80;99.90
7576;DHT22;3829;50.798;4.358;2023-07-20T14:30:39;31.00;99.90
7576;DHT22;3829;50.798;4.358;2023-07-20T14:33:05;30.20;99.90
7576;DHT22;3829;50.798;4.358;2023-07-20T14:35:31;30.00;99.90
7576;DHT22;3829;50.798;4.358;2023-07-20T14:37:56;29.10;99.90
7576;DHT22;3829;50.798;4.358;2023-07-20T14:40:22;28.40;99.90
7576;DHT22;3829;50.798;4.358;2023-07-20T14:42:47;28.20;99.90
7576;DHT22;3829;50.798;4.358;2023-07-20T14:45:14;28.90;99.90
7576;DHT22;3829;50.798;4.358;2023-07-20T14:47:39;28.70;99.90
7576;DHT22;3829;50.798;4.358;2023-07-20T14:50:06;28.80;99.90
7576;DHT22;3829;50.798;4.358;2023-07-20T14:52:32;30.30;99.90
7576;DHT22;3829;50.798;4.358;2023-07-20T14:54:57;30.80;99.90
7576;DHT22;3829;50.798;4.358;2023-07-20T14:57:23;30.80;99.90
7576;DHT22;3829;50.798;4.358;2023-07-20T14:59:49;30.00;99.90
7576;DHT22;3829;50.798;4.358;2023-07-20T15:02:15;28.60;99.90
7576;DHT22;3829;50.798;4.358;2023-07-20T15:04:49;28.40;99.90
7576;DHT22;3829;50.798;4.358;2023-07-20T15:07:17;28.10;99.90
7576;DHT22;3829;50.798;4.358;2023-07-20T15:09:44;27.80;99.90
7576;DHT22;3829;50.798;4.358;2023-07-20T15:12:09;27.40;99.90
7576;DHT22;3829;50.798;4.358;2023-07-20T15:14:35;26.90;99.90
7576;DHT22;3829;50.798;4.358;2023-07-20T15:17:01;26.10;99.90
7576;DHT22;3829;50.798;4.358;2023-07-20T15:19:28;25.50;99.90
7576;DHT22;3829;50.798;4.358;2023-07-20T15:21:53;25.20;99.90
7576;DHT22;3829;50.798;4.358;2023-07-20T15:24:19;24.60;99.90
7576;DHT22;3829;50.798;4.358;2023-07-20T15:26:44;24.30;99.90
7576;DHT22;3829;50.798;4.358;2023-07-20T15:29:11;24.10;99.90
7576;DHT22;3829;50.798;4.358;2023-07-20T15:31:37;23.80;99.90
7576;DHT22;3829;50.798;4.358;2023-07-20T15:34:02;23.80;99.90
7576;DHT22;3829;50.798;4.358;2023-07-20T15:36:28;23.60;99.90
7576;DHT22;3829;50.798;4.358;2023-07-20T15:38:54;23.50;99.90
7576;DHT22;3829;50.798;4.358;2023-07-20T15:41:19;23.30;99.90
7576;DHT22;3829;50.798;4.358;2023-07-20T15:43:45;23.00;99.90
7576;DHT22;3829;50.798;4.358;2023-07-20T15:46:43;22.30;99.90
7576;DHT22;3829;50.798;4.358;2023-07-20T15:49:09;21.00;99.90
7576;DHT22;3829;50.798;4.358;2023-07-20T15:51:35;19.70;99.90
7576;DHT22;3829;50.798;4.358;2023-07-20T15:54:04;18.60;99.90
7576;DHT22;3829;50.798;4.358;2023-07-20T15:56:32;17.90;99.90
7576;DHT22;3829;50.798;4.358;2023-07-20T15:58:59;17.60;99.90
7576;DHT22;3829;50.798;4.358;2023-07-20T16:01:24;17.30;99.90
7576;DHT22;3829;50.798;4.358;2023-07-20T16:03:50;17.10;99.90